Terminal Aerodrome Forecast
Issued by NWS

Home | Current Version | Previous Version | Text Only | Print | Product List | Glossary On
Versions: 1 2 3 4 5 6 7 8 9 10 11 12 13 14 15 16 17
000
FTUS41 KBTV 311700
TAFRUT
TAF
KRUT 311722Z 3118/0118 17006KT 6SM -SHRA VCTS BKN050CB
      TEMPO 3118/3119 24015G25KT 2SM +TSRA OVC020CB
     FM312100 21006KT P6SM BKN045
     FM010400 14007KT P6SM SKC
     FM011500 22006KT P6SM SCT050
      AMD LTD TO CLD VIS AND WIND=

USA.gov is the U.S. government's official web portal to all federal, state and local government web resources and services.